sensor_id;sensor_type;location;lat;lon;timestamp;P1;durP1;ratioP1;P2;durP2;ratioP2
32321;SDS011;61553;48.994;8.940;2022-09-03T00:08:33;3.53;;;1.40;;
32321;SDS011;61553;48.994;8.940;2022-09-03T00:13:56;3.83;;;1.40;;
32321;SDS011;61553;48.994;8.940;2022-09-03T00:16:25;4.05;;;1.40;;
32321;SDS011;61553;48.994;8.940;2022-09-03T00:18:56;5.72;;;1.30;;
32321;SDS011;61553;48.994;8.940;2022-09-03T00:21:44;4.30;;;1.40;;
32321;SDS011;61553;48.994;8.940;2022-09-03T00:24:15;3.38;;;1.95;;
32321;SDS011;61553;48.994;8.940;2022-09-03T00:26:54;3.10;;;1.40;;
32321;SDS011;61553;48.994;8.940;2022-09-03T00:29:27;2.08;;;1.25;;
32321;SDS011;61553;48.994;8.940;2022-09-03T00:32:02;3.55;;;1.88;;
32321;SDS011;61553;48.994;8.940;2022-09-03T00:34:35;2.83;;;1.35;;
32321;SDS011;61553;48.994;8.940;2022-09-03T00:37:06;6.10;;;1.67;;
32321;SDS011;61553;48.994;8.940;2022-09-03T00:39:33;2.55;;;1.30;;
32321;SDS011;61553;48.994;8.940;2022-09-03T00:47:59;3.40;;;1.50;;
32321;SDS011;61553;48.994;8.940;2022-09-03T00:56:11;3.90;;;1.65;;
32321;SDS011;61553;48.994;8.940;2022-09-03T00:58:55;5.22;;;1.58;;
32321;SDS011;61553;48.994;8.940;2022-09-03T01:10:05;2.92;;;1.30;;
32321;SDS011;61553;48.994;8.940;2022-09-03T01:15:07;4.00;;;1.58;;
32321;SDS011;61553;48.994;8.940;2022-09-03T01:26:20;2.40;;;1.17;;
32321;SDS011;61553;48.994;8.940;2022-09-03T01:37:21;2.90;;;1.58;;
32321;SDS011;61553;48.994;8.940;2022-09-03T01:40:07;5.05;;;1.40;;
32321;SDS011;61553;48.994;8.940;2022-09-03T01:42:55;4.35;;;1.60;;
32321;SDS011;61553;48.994;8.940;2022-09-03T01:50:38;3.28;;;1.35;;
32321;SDS011;61553;48.994;8.940;2022-09-03T01:53:17;3.05;;;1.25;;
32321;SDS011;61553;48.994;8.940;2022-09-03T01:55:56;2.28;;;1.30;;
32321;SDS011;61553;48.994;8.940;2022-09-03T02:01:21;3.42;;;1.30;;
32321;SDS011;61553;48.994;8.940;2022-09-03T02:03:51;4.00;;;1.50;;
32321;SDS011;61553;48.994;8.940;2022-09-03T02:06:24;2.85;;;1.45;;
32321;SDS011;61553;48.994;8.940;2022-09-03T02:08:51;3.13;;;1.23;;
32321;SDS011;61553;48.994;8.940;2022-09-03T02:11:17;5.03;;;1.40;;
32321;SDS011;61553;48.994;8.940;2022-09-03T02:13:44;4.70;;;1.48;;
32321;SDS011;61553;48.994;8.940;2022-09-03T02:16:24;3.88;;;1.33;;
32321;SDS011;61553;48.994;8.940;2022-09-03T02:18:55;5.22;;;1.65;;
32321;SDS011;61553;48.994;8.940;2022-09-03T02:21:26;3.20;;;1.30;;
32321;SDS011;61553;48.994;8.940;2022-09-03T02:23:56;3.53;;;1.00;;
32321;SDS011;61553;48.994;8.940;2022-09-03T02:26:23;2.78;;;1.35;;
32321;SDS011;61553;48.994;8.940;2022-09-03T02:28:49;3.42;;;1.50;;
32321;SDS011;61553;48.994;8.940;2022-09-03T02:31:17;2.60;;;1.30;;
32321;SDS011;61553;48.994;8.940;2022-09-03T02:33:43;2.05;;;0.93;;
32321;SDS011;61553;48.994;8.940;2022-09-03T02:36:12;4.38;;;1.40;;
32321;SDS011;61553;48.994;8.940;2022-09-03T02:38:41;3.42;;;1.42;;
32321;SDS011;61553;48.994;8.940;2022-09-03T02:41:08;2.97;;;1.38;;
32321;SDS011;61553;48.994;8.940;2022-09-03T02:46:07;3.30;;;1.40;;
32321;SDS011;61553;48.994;8.940;2022-09-03T02:48:37;5.18;;;1.25;;
32321;SDS011;61553;48.994;8.940;2022-09-03T02:51:02;3.15;;;1.38;;
32321;SDS011;61553;48.994;8.940;2022-09-03T02:53:28;2.80;;;1.40;;
32321;SDS011;61553;48.994;8.940;2022-09-03T02:55:58;3.42;;;1.45;;
32321;SDS011;61553;48.994;8.940;2022-09-03T02:58:24;4.32;;;1.60;;
32321;SDS011;61553;48.994;8.940;2022-09-03T03:00:50;4.25;;;1.48;;
32321;SDS011;61553;48.994;8.940;2022-09-03T03:03:16;3.70;;;1.30;;
32321;SDS011;61553;48.994;8.940;2022-09-03T03:05:43;3.00;;;1.33;;
32321;SDS011;61553;48.994;8.940;2022-09-03T03:08:12;3.80;;;1.30;;
32321;SDS011;61553;48.994;8.940;2022-09-03T03:10:45;5.03;;;1.45;;
32321;SDS011;61553;48.994;8.940;2022-09-03T03:13:12;6.10;;;1.48;;
32321;SDS011;61553;48.994;8.940;2022-09-03T03:15:39;4.30;;;1.73;;
32321;SDS011;61553;48.994;8.940;2022-09-03T03:18:05;2.15;;;1.25;;
32321;SDS011;61553;48.994;8.940;2022-09-03T03:20:31;3.10;;;1.60;;
32321;SDS011;61553;48.994;8.940;2022-09-03T03:23:00;4.22;;;1.20;;
32321;SDS011;61553;48.994;8.940;2022-09-03T03:25:26;4.40;;;1.40;;
32321;SDS011;61553;48.994;8.940;2022-09-03T03:27:53;4.88;;;1.20;;
32321;SDS011;61553;48.994;8.940;2022-09-03T03:30:21;3.15;;;1.38;;
32321;SDS011;61553;48.994;8.940;2022-09-03T03:32:47;3.63;;;1.30;;
32321;SDS011;61553;48.994;8.940;2022-09-03T03:35:12;3.67;;;1.58;;
32321;SDS011;61553;48.994;8.940;2022-09-03T03:37:38;4.15;;;1.50;;
32321;SDS011;61553;48.994;8.940;2022-09-03T03:40:04;4.30;;;1.50;;
32321;SDS011;61553;48.994;8.940;2022-09-03T03:42:32;9.52;;;1.52;;
32321;SDS011;61553;48.994;8.940;2022-09-03T03:44:58;4.80;;;1.60;;
32321;SDS011;61553;48.994;8.940;2022-09-03T03:47:26;3.60;;;1.50;;
32321;SDS011;61553;48.994;8.940;2022-09-03T03:49:53;5.10;;;1.70;;
32321;SDS011;61553;48.994;8.940;2022-09-03T03:52:18;3.95;;;1.52;;
32321;SDS011;61553;48.994;8.940;2022-09-03T03:54:44;2.80;;;1.20;;
32321;SDS011;61553;48.994;8.940;2022-09-03T03:57:09;2.95;;;1.40;;
32321;SDS011;61553;48.994;8.940;2022-09-03T03:59:35;5.72;;;1.38;;
32321;SDS011;61553;48.994;8.940;2022-09-03T04:02:00;2.83;;;1.17;;
32321;SDS011;61553;48.994;8.940;2022-09-03T04:04:26;3.90;;;1.50;;
32321;SDS011;61553;48.994;8.940;2022-09-03T04:06:52;4.00;;;1.23;;
32321;SDS011;61553;48.994;8.940;2022-09-03T04:09:17;3.60;;;1.42;;
32321;SDS011;61553;48.994;8.940;2022-09-03T04:11:43;3.00;;;1.30;;
32321;SDS011;61553;48.994;8.940;2022-09-03T04:14:09;3.80;;;1.50;;
32321;SDS011;61553;48.994;8.940;2022-09-03T04:16:34;3.65;;;1.60;;
32321;SDS011;61553;48.994;8.940;2022-09-03T04:19:00;3.50;;;1.42;;
32321;SDS011;61553;48.994;8.940;2022-09-03T04:21:26;2.95;;;1.48;;
32321;SDS011;61553;48.994;8.940;2022-09-03T04:23:54;2.45;;;1.30;;
32321;SDS011;61553;48.994;8.940;2022-09-03T04:26:21;4.53;;;1.50;;
32321;SDS011;61553;48.994;8.940;2022-09-03T04:28:49;2.72;;;1.48;;
32321;SDS011;61553;48.994;8.940;2022-09-03T04:31:16;2.70;;;1.15;;
32321;SDS011;61553;48.994;8.940;2022-09-03T04:33:43;4.43;;;1.50;;
32321;SDS011;61553;48.994;8.940;2022-09-03T04:38:35;3.03;;;1.33;;
32321;SDS011;61553;48.994;8.940;2022-09-03T04:41:02;3.67;;;1.40;;
32321;SDS011;61553;48.994;8.940;2022-09-03T04:43:28;3.67;;;1.50;;
32321;SDS011;61553;48.994;8.940;2022-09-03T04:45:55;4.60;;;1.42;;
32321;SDS011;61553;48.994;8.940;2022-09-03T04:48:25;6.13;;;1.67;;
32321;SDS011;61553;48.994;8.940;2022-09-03T04:50:51;3.55;;;1.50;;
32321;SDS011;61553;48.994;8.940;2022-09-03T04:53:17;4.25;;;1.45;;
32321;SDS011;61553;48.994;8.940;2022-09-03T04:55:42;5.13;;;1.45;;
32321;SDS011;61553;48.994;8.940;2022-09-03T04:58:08;4.00;;;1.48;;
32321;SDS011;61553;48.994;8.940;2022-09-03T05:00:35;4.65;;;1.25;;
32321;SDS011;61553;48.994;8.940;2022-09-03T05:03:01;2.28;;;1.30;;
32321;SDS011;61553;48.994;8.940;2022-09-03T05:05:28;3.60;;;1.50;;
32321;SDS011;61553;48.994;8.940;2022-09-03T05:07:58;2.05;;;1.05;;
32321;SDS011;61553;48.994;8.940;2022-09-03T05:10:27;2.05;;;1.20;;
32321;SDS011;61553;48.994;8.940;2022-09-03T05:12:57;3.63;;;1.10;;
32321;SDS011;61553;48.994;8.940;2022-09-03T05:15:24;4.22;;;1.70;;
32321;SDS011;61553;48.994;8.940;2022-09-03T05:17:49;3.75;;;1.45;;
32321;SDS011;61553;48.994;8.940;2022-09-03T05:20:19;4.25;;;1.50;;
32321;SDS011;61553;48.994;8.940;2022-09-03T05:22:45;2.83;;;1.30;;
32321;SDS011;61553;48.994;8.940;2022-09-03T05:25:11;3.50;;;1.30;;
32321;SDS011;61553;48.994;8.940;2022-09-03T05:27:36;9.60;;;1.90;;
32321;SDS011;61553;48.994;8.940;2022-09-03T05:30:02;3.88;;;1.60;;
32321;SDS011;61553;48.994;8.940;2022-09-03T05:32:29;2.60;;;1.30;;
32321;SDS011;61553;48.994;8.940;2022-09-03T05:34:55;2.60;;;1.42;;
32321;SDS011;61553;48.994;8.940;2022-09-03T05:37:21;3.75;;;1.83;;
32321;SDS011;61553;48.994;8.940;2022-09-03T05:39:47;6.15;;;1.50;;
32321;SDS011;61553;48.994;8.940;2022-09-03T05:42:13;5.97;;;1.70;;
32321;SDS011;61553;48.994;8.940;2022-09-03T05:44:39;2.97;;;1.40;;
32321;SDS011;61553;48.994;8.940;2022-09-03T05:47:05;5.68;;;1.60;;
32321;SDS011;61553;48.994;8.940;2022-09-03T05:49:31;3.33;;;1.30;;
32321;SDS011;61553;48.994;8.940;2022-09-03T05:51:56;3.08;;;1.35;;
32321;SDS011;61553;48.994;8.940;2022-09-03T05:54:22;3.40;;;1.50;;
32321;SDS011;61553;48.994;8.940;2022-09-03T05:56:48;4.53;;;1.40;;
32321;SDS011;61553;48.994;8.940;2022-09-03T05:59:13;3.33;;;1.33;;
32321;SDS011;61553;48.994;8.940;2022-09-03T06:01:43;3.63;;;1.55;;
32321;SDS011;61553;48.994;8.940;2022-09-03T06:04:11;4.55;;;1.50;;
32321;SDS011;61553;48.994;8.940;2022-09-03T06:06:42;2.97;;;1.42;;
32321;SDS011;61553;48.994;8.940;2022-09-03T06:09:10;2.67;;;1.30;;
32321;SDS011;61553;48.994;8.940;2022-09-03T06:11:41;2.78;;;1.38;;
32321;SDS011;61553;48.994;8.940;2022-09-03T06:14:08;3.92;;;1.50;;
32321;SDS011;61553;48.994;8.940;2022-09-03T06:16:37;4.78;;;1.50;;
32321;SDS011;61553;48.994;8.940;2022-09-03T06:19:05;3.83;;;1.50;;
32321;SDS011;61553;48.994;8.940;2022-09-03T06:21:33;5.35;;;1.40;;
32321;SDS011;61553;48.994;8.940;2022-09-03T06:24:00;7.03;;;1.88;;
32321;SDS011;61553;48.994;8.940;2022-09-03T06:26:26;3.80;;;1.63;;
32321;SDS011;61553;48.994;8.940;2022-09-03T06:28:52;4.80;;;1.77;;
32321;SDS011;61553;48.994;8.940;2022-09-03T06:31:19;3.33;;;1.65;;
32321;SDS011;61553;48.994;8.940;2022-09-03T06:33:45;2.70;;;1.30;;
32321;SDS011;61553;48.994;8.940;2022-09-03T06:36:13;3.63;;;1.38;;
32321;SDS011;61553;48.994;8.940;2022-09-03T06:38:41;5.20;;;1.35;;
32321;SDS011;61553;48.994;8.940;2022-09-03T06:41:08;5.63;;;1.65;;
32321;SDS011;61553;48.994;8.940;2022-09-03T06:43:39;3.22;;;1.30;;
32321;SDS011;61553;48.994;8.940;2022-09-03T06:46:07;6.15;;;1.70;;
32321;SDS011;61553;48.994;8.940;2022-09-03T06:48:35;3.65;;;1.70;;
32321;SDS011;61553;48.994;8.940;2022-09-03T06:53:36;3.78;;;1.50;;
32321;SDS011;61553;48.994;8.940;2022-09-03T06:56:04;4.32;;;1.77;;
32321;SDS011;61553;48.994;8.940;2022-09-03T06:58:32;3.28;;;1.55;;
32321;SDS011;61553;48.994;8.940;2022-09-03T07:03:31;3.80;;;1.80;;
32321;SDS011;61553;48.994;8.940;2022-09-03T07:06:04;4.35;;;1.88;;
32321;SDS011;61553;48.994;8.940;2022-09-03T07:08:31;5.35;;;2.00;;
32321;SDS011;61553;48.994;8.940;2022-09-03T07:11:00;3.22;;;1.40;;
32321;SDS011;61553;48.994;8.940;2022-09-03T07:13:33;6.20;;;1.80;;
32321;SDS011;61553;48.994;8.940;2022-09-03T07:18:36;3.22;;;1.80;;
32321;SDS011;61553;48.994;8.940;2022-09-03T07:21:05;4.10;;;1.70;;
32321;SDS011;61553;48.994;8.940;2022-09-03T07:23:33;4.03;;;1.88;;
32321;SDS011;61553;48.994;8.940;2022-09-03T07:26:01;3.78;;;1.70;;
32321;SDS011;61553;48.994;8.940;2022-09-03T07:28:29;4.05;;;1.90;;
32321;SDS011;61553;48.994;8.940;2022-09-03T07:31:00;3.60;;;1.80;;
32321;SDS011;61553;48.994;8.940;2022-09-03T07:33:31;5.20;;;1.60;;
32321;SDS011;61553;48.994;8.940;2022-09-03T07:36:02;6.68;;;1.85;;
32321;SDS011;61553;48.994;8.940;2022-09-03T07:38:30;6.30;;;1.80;;
32321;SDS011;61553;48.994;8.940;2022-09-03T07:40:57;4.50;;;2.03;;
32321;SDS011;61553;48.994;8.940;2022-09-03T07:43:25;4.20;;;1.88;;
32321;SDS011;61553;48.994;8.940;2022-09-03T07:45:52;4.05;;;1.70;;
32321;SDS011;61553;48.994;8.940;2022-09-03T07:48:19;4.20;;;1.73;;
32321;SDS011;61553;48.994;8.940;2022-09-03T07:50:45;5.13;;;2.22;;
32321;SDS011;61553;48.994;8.940;2022-09-03T07:53:12;4.43;;;2.10;;
32321;SDS011;61553;48.994;8.940;2022-09-03T07:55:37;4.55;;;1.90;;
32321;SDS011;61553;48.994;8.940;2022-09-03T07:58:04;5.03;;;2.50;;
32321;SDS011;61553;48.994;8.940;2022-09-03T08:00:29;5.10;;;1.77;;
32321;SDS011;61553;48.994;8.940;2022-09-03T08:02:57;6.85;;;1.92;;
32321;SDS011;61553;48.994;8.940;2022-09-03T08:05:30;3.60;;;1.85;;
32321;SDS011;61553;48.994;8.940;2022-09-03T08:07:58;4.25;;;1.98;;
32321;SDS011;61553;48.994;8.940;2022-09-03T08:10:25;4.82;;;2.10;;
32321;SDS011;61553;48.994;8.940;2022-09-03T08:12:54;3.53;;;1.83;;
32321;SDS011;61553;48.994;8.940;2022-09-03T08:15:20;5.03;;;1.80;;
32321;SDS011;61553;48.994;8.940;2022-09-03T08:17:45;3.30;;;1.70;;
32321;SDS011;61553;48.994;8.940;2022-09-03T08:20:11;5.57;;;2.03;;
32321;SDS011;61553;48.994;8.940;2022-09-03T08:22:37;7.63;;;1.92;;
32321;SDS011;61553;48.994;8.940;2022-09-03T08:25:02;3.65;;;1.67;;
32321;SDS011;61553;48.994;8.940;2022-09-03T08:27:28;3.40;;;1.98;;
32321;SDS011;61553;48.994;8.940;2022-09-03T08:29:55;6.68;;;2.58;;
32321;SDS011;61553;48.994;8.940;2022-09-03T08:32:21;2.75;;;1.58;;
32321;SDS011;61553;48.994;8.940;2022-09-03T08:34:47;7.82;;;2.60;;
32321;SDS011;61553;48.994;8.940;2022-09-03T08:37:12;5.05;;;2.45;;
32321;SDS011;61553;48.994;8.940;2022-09-03T08:39:38;6.78;;;2.17;;
32321;SDS011;61553;48.994;8.940;2022-09-03T08:44:52;4.45;;;2.30;;
32321;SDS011;61553;48.994;8.940;2022-09-03T08:47:22;6.85;;;2.42;;
32321;SDS011;61553;48.994;8.940;2022-09-03T08:52:32;3.55;;;2.42;;
32321;SDS011;61553;48.994;8.940;2022-09-03T08:58:00;4.03;;;2.40;;
32321;SDS011;61553;48.994;8.940;2022-09-03T09:06:04;4.95;;;2.10;;
32321;SDS011;61553;48.994;8.940;2022-09-03T09:22:29;5.00;;;2.20;;
32321;SDS011;61553;48.994;8.940;2022-09-03T09:24:57;3.45;;;2.20;;
32321;SDS011;61553;48.994;8.940;2022-09-03T09:27:29;3.92;;;2.50;;
32321;SDS011;61553;48.994;8.940;2022-09-03T09:29:57;3.83;;;2.40;;
32321;SDS011;61553;48.994;8.940;2022-09-03T09:32:25;3.58;;;2.47;;
32321;SDS011;61553;48.994;8.940;2022-09-03T09:34:51;4.55;;;2.30;;
32321;SDS011;61553;48.994;8.940;2022-09-03T09:37:18;5.35;;;2.45;;
32321;SDS011;61553;48.994;8.940;2022-09-03T09:39:55;5.05;;;2.53;;
32321;SDS011;61553;48.994;8.940;2022-09-03T09:42:24;5.10;;;2.78;;
32321;SDS011;61553;48.994;8.940;2022-09-03T09:44:50;5.78;;;2.50;;
32321;SDS011;61553;48.994;8.940;2022-09-03T09:47:24;4.78;;;2.50;;
32321;SDS011;61553;48.994;8.940;2022-09-03T09:49:56;3.53;;;2.28;;
32321;SDS011;61553;48.994;8.940;2022-09-03T09:52:24;4.20;;;2.60;;
32321;SDS011;61553;48.994;8.940;2022-09-03T09:54:53;3.20;;;2.40;;
32321;SDS011;61553;48.994;8.940;2022-09-03T09:57:42;3.20;;;2.20;;
32321;SDS011;61553;48.994;8.940;2022-09-03T10:00:08;4.97;;;2.40;;
32321;SDS011;61553;48.994;8.940;2022-09-03T10:02:37;3.13;;;1.92;;
32321;SDS011;61553;48.994;8.940;2022-09-03T10:05:13;3.42;;;1.90;;
32321;SDS011;61553;48.994;8.940;2022-09-03T10:07:59;3.60;;;2.63;;
32321;SDS011;61553;48.994;8.940;2022-09-03T10:10:28;3.50;;;2.20;;
32321;SDS011;61553;48.994;8.940;2022-09-03T10:13:03;4.45;;;2.05;;
32321;SDS011;61553;48.994;8.940;2022-09-03T10:15:41;3.13;;;1.60;;
32321;SDS011;61553;48.994;8.940;2022-09-03T10:18:16;3.10;;;1.80;;
32321;SDS011;61553;48.994;8.940;2022-09-03T10:23:24;4.28;;;2.20;;
32321;SDS011;61553;48.994;8.940;2022-09-03T10:28:46;4.07;;;1.90;;
32321;SDS011;61553;48.994;8.940;2022-09-03T10:31:28;3.20;;;1.65;;
32321;SDS011;61553;48.994;8.940;2022-09-03T10:34:21;5.82;;;2.33;;
32321;SDS011;61553;48.994;8.940;2022-09-03T10:45:32;2.97;;;2.10;;
32321;SDS011;61553;48.994;8.940;2022-09-03T10:48:28;3.58;;;2.10;;
32321;SDS011;61553;48.994;8.940;2022-09-03T10:54:18;3.38;;;2.13;;
32321;SDS011;61553;48.994;8.940;2022-09-03T11:05:10;3.78;;;2.22;;
32321;SDS011;61553;48.994;8.940;2022-09-03T11:07:50;3.72;;;1.92;;
32321;SDS011;61553;48.994;8.940;2022-09-03T11:10:29;3.75;;;2.35;;
32321;SDS011;61553;48.994;8.940;2022-09-03T11:13:04;6.88;;;3.00;;
32321;SDS011;61553;48.994;8.940;2022-09-03T11:15:38;3.10;;;2.10;;
32321;SDS011;61553;48.994;8.940;2022-09-03T11:20:44;4.30;;;2.17;;
32321;SDS011;61553;48.994;8.940;2022-09-03T11:23:13;5.05;;;2.25;;
32321;SDS011;61553;48.994;8.940;2022-09-03T11:25:42;7.03;;;2.50;;
32321;SDS011;61553;48.994;8.940;2022-09-03T11:28:22;4.50;;;2.47;;
32321;SDS011;61553;48.994;8.940;2022-09-03T11:31:15;5.38;;;2.70;;
32321;SDS011;61553;48.994;8.940;2022-09-03T11:34:06;4.88;;;2.22;;
32321;SDS011;61553;48.994;8.940;2022-09-03T11:36:38;3.30;;;2.00;;
32321;SDS011;61553;48.994;8.940;2022-09-03T11:39:12;3.67;;;2.05;;
32321;SDS011;61553;48.994;8.940;2022-09-03T11:42:48;3.67;;;2.40;;
32321;SDS011;61553;48.994;8.940;2022-09-03T11:44:50;3.33;;;1.95;;
32321;SDS011;61553;48.994;8.940;2022-09-03T11:47:23;3.35;;;2.25;;
32321;SDS011;61553;48.994;8.940;2022-09-03T11:50:06;8.57;;;2.40;;
32321;SDS011;61553;48.994;8.940;2022-09-03T11:52:44;5.65;;;2.58;;
32321;SDS011;61553;48.994;8.940;2022-09-03T11:55:10;4.75;;;2.60;;
32321;SDS011;61553;48.994;8.940;2022-09-03T11:57:40;7.18;;;2.30;;
32321;SDS011;61553;48.994;8.940;2022-09-03T12:00:13;4.47;;;2.70;;
32321;SDS011;61553;48.994;8.940;2022-09-03T12:02:56;3.67;;;2.33;;
32321;SDS011;61553;48.994;8.940;2022-09-03T12:18:39;3.88;;;2.55;;
32321;SDS011;61553;48.994;8.940;2022-09-03T12:21:07;6.47;;;2.42;;
32321;SDS011;61553;48.994;8.940;2022-09-03T12:23:39;5.57;;;2.60;;
32321;SDS011;61553;48.994;8.940;2022-09-03T12:28:34;4.93;;;2.40;;
32321;SDS011;61553;48.994;8.940;2022-09-03T12:31:06;3.67;;;2.50;;
32321;SDS011;61553;48.994;8.940;2022-09-03T12:33:55;4.07;;;2.42;;
32321;SDS011;61553;48.994;8.940;2022-09-03T12:36:23;4.18;;;2.40;;
32321;SDS011;61553;48.994;8.940;2022-09-03T12:38:50;2.97;;;2.05;;
32321;SDS011;61553;48.994;8.940;2022-09-03T12:41:24;3.35;;;1.95;;
32321;SDS011;61553;48.994;8.940;2022-09-03T12:43:55;4.53;;;2.35;;
32321;SDS011;61553;48.994;8.940;2022-09-03T12:46:23;4.65;;;2.28;;
32321;SDS011;61553;48.994;8.940;2022-09-03T12:49:05;4.85;;;2.30;;
32321;SDS011;61553;48.994;8.940;2022-09-03T12:51:41;5.65;;;2.83;;
32321;SDS011;61553;48.994;8.940;2022-09-03T12:54:09;7.88;;;3.08;;
32321;SDS011;61553;48.994;8.940;2022-09-03T12:56:44;5.53;;;2.75;;
32321;SDS011;61553;48.994;8.940;2022-09-03T12:59:15;3.80;;;2.70;;
32321;SDS011;61553;48.994;8.940;2022-09-03T13:01:46;4.32;;;2.60;;
32321;SDS011;61553;48.994;8.940;2022-09-03T13:04:16;5.55;;;2.60;;
32321;SDS011;61553;48.994;8.940;2022-09-03T13:09:19;5.28;;;2.53;;
32321;SDS011;61553;48.994;8.940;2022-09-03T13:11:47;4.63;;;2.72;;
32321;SDS011;61553;48.994;8.940;2022-09-03T13:14:15;5.18;;;2.17;;
32321;SDS011;61553;48.994;8.940;2022-09-03T13:22:08;3.97;;;1.42;;
32321;SDS011;61553;48.994;8.940;2022-09-03T13:30:19;2.80;;;1.30;;
32321;SDS011;61553;48.994;8.940;2022-09-03T13:40:44;2.78;;;1.13;;
32321;SDS011;61553;48.994;8.940;2022-09-03T13:45:50;4.38;;;1.52;;
32321;SDS011;61553;48.994;8.940;2022-09-03T13:48:29;3.58;;;1.63;;
32321;SDS011;61553;48.994;8.940;2022-09-03T13:59:51;1.92;;;1.20;;
32321;SDS011;61553;48.994;8.940;2022-09-03T14:15:41;3.83;;;1.58;;
32321;SDS011;61553;48.994;8.940;2022-09-03T14:18:22;3.10;;;1.42;;
32321;SDS011;61553;48.994;8.940;2022-09-03T14:25:53;2.92;;;1.40;;
32321;SDS011;61553;48.994;8.940;2022-09-03T14:31:09;3.88;;;1.48;;
32321;SDS011;61553;48.994;8.940;2022-09-03T14:36:51;13.73;;;2.95;;
32321;SDS011;61553;48.994;8.940;2022-09-03T14:53:48;15.10;;;2.63;;
32321;SDS011;61553;48.994;8.940;2022-09-03T14:58:54;29.85;;;15.30;;
32321;SDS011;61553;48.994;8.940;2022-09-03T15:01:34;10.75;;;4.18;;
32321;SDS011;61553;48.994;8.940;2022-09-03T15:04:18;9.40;;;2.65;;
32321;SDS011;61553;48.994;8.940;2022-09-03T15:16:07;5.05;;;2.10;;
32321;SDS011;61553;48.994;8.940;2022-09-03T15:20:51;6.97;;;2.60;;
32321;SDS011;61553;48.994;8.940;2022-09-03T15:23:28;5.13;;;2.60;;
32321;SDS011;61553;48.994;8.940;2022-09-03T15:26:28;3.58;;;1.92;;
32321;SDS011;61553;48.994;8.940;2022-09-03T15:32:36;6.65;;;2.00;;
32321;SDS011;61553;48.994;8.940;2022-09-03T15:35:08;5.95;;;1.67;;
32321;SDS011;61553;48.994;8.940;2022-09-03T15:37:44;4.20;;;1.85;;
32321;SDS011;61553;48.994;8.940;2022-09-03T15:40:24;6.05;;;1.73;;
32321;SDS011;61553;48.994;8.940;2022-09-03T15:43:08;2.55;;;1.50;;
32321;SDS011;61553;48.994;8.940;2022-09-03T15:45:48;3.55;;;1.80;;
32321;SDS011;61553;48.994;8.940;2022-09-03T15:56:51;4.50;;;1.70;;
32321;SDS011;61553;48.994;8.940;2022-09-03T16:00:09;2.95;;;1.80;;
32321;SDS011;61553;48.994;8.940;2022-09-03T16:02:32;6.93;;;2.17;;
32321;SDS011;61553;48.994;8.940;2022-09-03T16:05:20;4.43;;;1.83;;
32321;SDS011;61553;48.994;8.940;2022-09-03T16:18:35;6.85;;;3.20;;
32321;SDS011;61553;48.994;8.940;2022-09-03T16:23:55;3.70;;;2.08;;
32321;SDS011;61553;48.994;8.940;2022-09-03T16:29:27;4.13;;;2.03;;
32321;SDS011;61553;48.994;8.940;2022-09-03T16:51:07;3.42;;;1.88;;
32321;SDS011;61553;48.994;8.940;2022-09-03T16:53:40;7.78;;;2.08;;
32321;SDS011;61553;48.994;8.940;2022-09-03T16:56:33;3.77;;;1.77;;
32321;SDS011;61553;48.994;8.940;2022-09-03T16:59:18;4.57;;;2.17;;
32321;SDS011;61553;48.994;8.940;2022-09-03T17:07:25;6.10;;;2.25;;
32321;SDS011;61553;48.994;8.940;2022-09-03T17:10:22;5.72;;;2.10;;
32321;SDS011;61553;48.994;8.940;2022-09-03T17:37:57;5.10;;;2.35;;
32321;SDS011;61553;48.994;8.940;2022-09-03T17:43:16;5.05;;;3.33;;
32321;SDS011;61553;48.994;8.940;2022-09-03T17:45:46;8.10;;;4.72;;
32321;SDS011;61553;48.994;8.940;2022-09-03T17:48:56;5.45;;;3.10;;
32321;SDS011;61553;48.994;8.940;2022-09-03T17:56:55;5.78;;;3.53;;
32321;SDS011;61553;48.994;8.940;2022-09-03T18:02:27;4.22;;;2.53;;
32321;SDS011;61553;48.994;8.940;2022-09-03T18:05:15;5.63;;;2.70;;
32321;SDS011;61553;48.994;8.940;2022-09-03T18:16:08;5.90;;;3.78;;
32321;SDS011;61553;48.994;8.940;2022-09-03T18:18:44;5.60;;;3.63;;
32321;SDS011;61553;48.994;8.940;2022-09-03T18:21:13;4.90;;;3.17;;
32321;SDS011;61553;48.994;8.940;2022-09-03T18:27:11;7.30;;;3.20;;
32321;SDS011;61553;48.994;8.940;2022-09-03T18:30:03;6.45;;;3.22;;
32321;SDS011;61553;48.994;8.940;2022-09-03T18:32:52;7.82;;;3.40;;
32321;SDS011;61553;48.994;8.940;2022-09-03T18:35:37;3.78;;;2.50;;
32321;SDS011;61553;48.994;8.940;2022-09-03T18:38:25;8.40;;;3.42;;
32321;SDS011;61553;48.994;8.940;2022-09-03T18:46:58;11.80;;;8.13;;
32321;SDS011;61553;48.994;8.940;2022-09-03T18:50:19;10.32;;;6.65;;
32321;SDS011;61553;48.994;8.940;2022-09-03T18:55:58;19.42;;;13.05;;
32321;SDS011;61553;48.994;8.940;2022-09-03T18:58:56;14.75;;;8.98;;
32321;SDS011;61553;48.994;8.940;2022-09-03T19:01:44;11.52;;;5.82;;
32321;SDS011;61553;48.994;8.940;2022-09-03T19:04:45;6.00;;;3.88;;
32321;SDS011;61553;48.994;8.940;2022-09-03T19:10:54;4.80;;;3.00;;
32321;SDS011;61553;48.994;8.940;2022-09-03T19:13:42;6.10;;;3.50;;
32321;SDS011;61553;48.994;8.940;2022-09-03T19:16:43;3.95;;;3.10;;
32321;SDS011;61553;48.994;8.940;2022-09-03T19:19:59;5.45;;;3.25;;
32321;SDS011;61553;48.994;8.940;2022-09-03T19:22:45;6.22;;;3.20;;
32321;SDS011;61553;48.994;8.940;2022-09-03T19:25:29;4.97;;;3.13;;
32321;SDS011;61553;48.994;8.940;2022-09-03T19:28:18;5.53;;;3.10;;
32321;SDS011;61553;48.994;8.940;2022-09-03T19:52:34;4.75;;;3.40;;
32321;SDS011;61553;48.994;8.940;2022-09-03T19:55:24;6.45;;;3.35;;
32321;SDS011;61553;48.994;8.940;2022-09-03T19:58:10;4.90;;;3.63;;
32321;SDS011;61553;48.994;8.940;2022-09-03T20:00:59;4.60;;;3.10;;
32321;SDS011;61553;48.994;8.940;2022-09-03T20:03:43;4.85;;;3.72;;
32321;SDS011;61553;48.994;8.940;2022-09-03T20:06:28;6.00;;;3.33;;
32321;SDS011;61553;48.994;8.940;2022-09-03T20:09:14;9.85;;;3.42;;
32321;SDS011;61553;48.994;8.940;2022-09-03T20:12:03;5.63;;;3.33;;
32321;SDS011;61553;48.994;8.940;2022-09-03T20:14:32;6.47;;;3.60;;
32321;SDS011;61553;48.994;8.940;2022-09-03T20:22:30;5.40;;;3.92;;
32321;SDS011;61553;48.994;8.940;2022-09-03T20:30:17;8.85;;;3.35;;
32321;SDS011;61553;48.994;8.940;2022-09-03T20:40:26;7.22;;;3.58;;
32321;SDS011;61553;48.994;8.940;2022-09-03T20:48:35;9.35;;;4.95;;
32321;SDS011;61553;48.994;8.940;2022-09-03T20:51:17;7.07;;;4.18;;
32321;SDS011;61553;48.994;8.940;2022-09-03T21:07:17;6.82;;;4.40;;
32321;SDS011;61553;48.994;8.940;2022-09-03T21:12:52;6.90;;;4.05;;
32321;SDS011;61553;48.994;8.940;2022-09-03T21:15:48;6.18;;;3.88;;
32321;SDS011;61553;48.994;8.940;2022-09-03T21:23:48;10.45;;;8.68;;
32321;SDS011;61553;48.994;8.940;2022-09-03T21:26:39;15.38;;;13.10;;
32321;SDS011;61553;48.994;8.940;2022-09-03T21:29:18;21.02;;;16.95;;
32321;SDS011;61553;48.994;8.940;2022-09-03T21:35:15;28.85;;;24.10;;
32321;SDS011;61553;48.994;8.940;2022-09-03T21:38:05;32.00;;;23.10;;
32321;SDS011;61553;48.994;8.940;2022-09-03T21:40:36;23.73;;;18.45;;
32321;SDS011;61553;48.994;8.940;2022-09-03T21:43:11;18.05;;;15.38;;
32321;SDS011;61553;48.994;8.940;2022-09-03T21:48:38;17.05;;;14.07;;
32321;SDS011;61553;48.994;8.940;2022-09-03T21:51:15;18.98;;;14.88;;
32321;SDS011;61553;48.994;8.940;2022-09-03T21:53:48;17.83;;;14.20;;
32321;SDS011;61553;48.994;8.940;2022-09-03T21:56:38;15.45;;;11.45;;
32321;SDS011;61553;48.994;8.940;2022-09-03T22:04:34;7.80;;;5.43;;
32321;SDS011;61553;48.994;8.940;2022-09-03T22:07:19;10.63;;;5.63;;
32321;SDS011;61553;48.994;8.940;2022-09-03T22:15:01;9.40;;;6.47;;
32321;SDS011;61553;48.994;8.940;2022-09-03T22:17:39;9.88;;;6.50;;
32321;SDS011;61553;48.994;8.940;2022-09-03T22:20:16;8.20;;;4.88;;
32321;SDS011;61553;48.994;8.940;2022-09-03T22:22:47;9.63;;;6.25;;
32321;SDS011;61553;48.994;8.940;2022-09-03T22:27:55;7.03;;;5.22;;